Map

Track Data

SID SEASON NUMBER BASIN SUBBASIN NAME ISO_TIME NATURE LAT LON WMO_WIND WMO_PRES WMO_AGENCY TRACK_TYPE DIST2LAND LANDFALL IFLAG USA_AGENCY USA_ATCF_ID USA_LAT USA_LON USA_RECORD USA_STATUS USA_WIND USA_PRES USA_SSHS USA_R34_NE USA_R34_SE USA_R34_SW USA_R34_NW USA_R50_NE USA_R50_SE USA_R50_SW USA_R50_NW USA_R64_NE USA_R64_SE USA_R64_SW USA_R64_NW USA_POCI USA_ROCI USA_RMW USA_EYE TOKYO_LAT TOKYO_LON TOKYO_GRADE TOKYO_WIND TOKYO_PRES TOKYO_R50_DIR TOKYO_R50_LONG TOKYO_R50_SHORT TOKYO_R30_DIR TOKYO_R30_LONG TOKYO_R30_SHORT TOKYO_LAND CMA_LAT CMA_LON CMA_CAT CMA_WIND CMA_PRES HKO_LAT HKO_LON HKO_CAT HKO_WIND HKO_PRES NEWDELHI_LAT NEWDELHI_LON NEWDELHI_GRADE NEWDELHI_WIND NEWDELHI_PRES NEWDELHI_CI NEWDELHI_DP NEWDELHI_POCI REUNION_LAT REUNION_LON REUNION_TYPE REUNION_WIND REUNION_PRES REUNION_TNUM REUNION_CI REUNION_RMW REUNION_R34_NE REUNION_R34_SE REUNION_R34_SW REUNION_R34_NW REUNION_R50_NE REUNION_R50_SE REUNION_R50_SW REUNION_R50_NW REUNION_R64_NE REUNION_R64_SE REUNION_R64_SW REUNION_R64_NW BOM_LAT BOM_LON BOM_TYPE BOM_WIND BOM_PRES BOM_TNUM BOM_CI BOM_RMW BOM_R34_NE BOM_R34_SE BOM_R34_SW BOM_R34_NW BOM_R50_NE BOM_R50_SE BOM_R50_SW BOM_R50_NW BOM_R64_NE BOM_R64_SE BOM_R64_SW BOM_R64_NW BOM_ROCI BOM_POCI BOM_EYE BOM_POS_METHOD BOM_PRES_METHOD NADI_LAT NADI_LON NADI_CAT NADI_WIND NADI_PRES WELLINGTON_LAT WELLINGTON_LON WELLINGTON_WIND WELLINGTON_PRES DS824_LAT DS824_LON DS824_STAGE DS824_WIND DS824_PRES TD9636_LAT TD9636_LON TD9636_STAGE TD9636_WIND TD9636_PRES TD9635_LAT TD9635_LON TD9635_WIND TD9635_PRES TD9635_ROCI NEUMANN_LAT NEUMANN_LON NEUMANN_CLASS NEUMANN_WIND NEUMANN_PRES MLC_LAT MLC_LON MLC_CLASS MLC_WIND MLC_PRES USA_GUST BOM_GUST BOM_GUST_PER REUNION_GUST REUNION_GUST_PER USA_SEAHGT USA_SEARAD_NE USA_SEARAD_SE USA_SEARAD_SW USA_SEARAD_NW STORM_SPEED STORM_DIR
1871001S16061 1871 3 SI MM NOT_NAMED 1871-01-01 06:00:00 NR -16.1000 60.8000 reunion main 554 554 _____O________ -1 -16.1000 60.8000 99 9.90000 1 64
1871001S16061 1871 3 SI MM NOT_NAMED 1871-01-01 09:00:00 NR -16.0826 60.8468 main 554 554 _____P________ -1 -16.0826 60.8468 99 1 71
1871001S16061 1871 3 SI MM NOT_NAMED 1871-01-01 12:00:00 NR -16.0717 60.8808 main 560 560 _____P________ -1 -16.0717 60.8808 99 0 77
1871001S16061 1871 3 SI MM NOT_NAMED 1871-01-01 15:00:00 NR -16.0737 60.8892 main 560 560 _____P________ -1 -16.0737 60.8892 99 0 0
1871001S16061 1871 3 SI MM NOT_NAMED 1871-01-01 18:00:00 NR -16.0949 60.8594 main 560 554 _____P________ -1 -16.0949 60.8594 99 1 237
1871001S16061 1871 3 SI MM NOT_NAMED 1871-01-01 21:00:00 NR -16.1418 60.7785 main 554 533 _____P________ -1 -16.1418 60.7785 99 3 240
1871001S16061 1871 3 SI MM NOT_NAMED 1871-01-02 00:00:00 NR -16.2208 60.6336 main 533 511 _____P________ -1 -16.2208 60.6336 99 4 241
1871001S16061 1871 3 SI MM NOT_NAMED 1871-01-02 03:00:00 NR -16.3381 60.4119 main 511 475 _____P________ -1 -16.3381 60.4119 99 6 241
1871001S16061 1871 3 SI MM NOT_NAMED 1871-01-02 06:00:00 NR -16.5000 60.1000 reunion main 475 434 _____O________ -1 -16.5000 60.1000 99 9.90000 8 242
1871001S16061 1871 3 SI MM NOT_NAMED 1871-01-02 09:00:00 NR -16.7102 59.6908 main 434 391 _____P________ -1 -16.7102 59.6908 99 10 242
1871001S16061 1871 3 SI MM NOT_NAMED 1871-01-02 12:00:00 NR -16.9637 59.2013 main 381 341 _____P________ -1 -16.9637 59.2013 99 11 241
1871001S16061 1871 3 SI MM NOT_NAMED 1871-01-02 15:00:00 NR -17.2531 58.6550 main 330 282 _____P________ -1 -17.2531 58.6550 99 12 241
1871001S16061 1871 3 SI MM NOT_NAMED 1871-01-02 18:00:00 NR -17.5715 58.0752 main 282 246 _____P________ -1 -17.5715 58.0752 99 13 239
1871001S16061 1871 3 SI MM NOT_NAMED 1871-01-02 21:00:00 NR -17.9118 57.4857 main 246 216 _____P________ -1 -17.9118 57.4857 99 13 238
1871001S16061 1871 3 SI MM NOT_NAMED 1871-01-03 00:00:00 NR -18.2675 56.9105 main 210 197 _____P________ -1 -18.2675 56.9105 99 13 236
1871001S16061 1871 3 SI MM NOT_NAMED 1871-01-03 03:00:00 NR -18.6322 56.3738 main 203 198 _____P________ -1 -18.6322 56.3738 99 12 233
1871001S16061 1871 3 SI MM NOT_NAMED 1871-01-03 06:00:00 NR -19.0000 55.9000 reunion main 207 190 _____O________ -1 -19.0000 55.9000 99 9.90000 11 228
1871001S16061 1871 3 SI MM NOT_NAMED 1871-01-03 09:00:00 NR -19.3420 55.5476 main 190 145 _____P________ -1 -19.3420 55.5476 99 9 222
1871001S16061 1871 3 SI MM NOT_NAMED 1871-01-03 12:00:00 NR -19.6931 55.2467 main 145 113 _____P________ -1 -19.6931 55.2467 99 9 216
1871001S16061 1871 3 SI MM NOT_NAMED 1871-01-03 15:00:00 NR -20.0517 54.9934 main 105 84 _____P________ -1 -20.0517 54.9934 99 8 211
1871001S16061 1871 3 SI MM NOT_NAMED 1871-01-03 18:00:00 NR -20.4163 54.7837 main 84 68 _____P________ -1 -20.4163 54.7837 99 8 206
1871001S16061 1871 3 SI MM NOT_NAMED 1871-01-03 21:00:00 NR -20.7852 54.6135 main 70 66 _____P________ -1 -20.7852 54.6135 99 8 201
1871001S16061 1871 3 SI MM NOT_NAMED 1871-01-04 00:00:00 NR -21.1566 54.4788 main 73 73 _____P________ -1 -21.1566 54.4788 99 8 196
1871001S16061 1871 3 SI MM NOT_NAMED 1871-01-04 03:00:00 NR -21.5288 54.3757 main 94 94 _____P________ -1 -21.5288 54.3757 99 8 193
1871001S16061 1871 3 SI MM NOT_NAMED 1871-01-04 06:00:00 NR -21.9000 54.3000 reunion main 123 123 _____O________ -1 -21.9000 54.3000 99 9.90000 8 192
1871001S16061 1871 3 SI MM NOT_NAMED 1871-01-04 09:00:00 NR -22.2773 54.2111 main 159 159 _____P________ -1 -22.2773 54.2111 99 8 190
1871001S16061 1871 3 SI MM NOT_NAMED 1871-01-04 12:00:00 NR -22.6567 54.1547 main 193 193 _____P________ -1 -22.6567 54.1547 99 8 186
1871001S16061 1871 3 SI MM NOT_NAMED 1871-01-04 15:00:00 NR -23.0349 54.1273 main 226 226 _____P________ -1 -23.0349 54.1273 99 8 182
1871001S16061 1871 3 SI MM NOT_NAMED 1871-01-04 18:00:00 NR -23.4090 54.1254 main 265 265 _____P________ -1 -23.4090 54.1254 99 7 178
1871001S16061 1871 3 SI MM NOT_NAMED 1871-01-04 21:00:00 NR -23.7757 54.1453 main 305 301 _____P________ -1 -23.7757 54.1453 99 7 175
1871001S16061 1871 3 SI MM NOT_NAMED 1871-01-05 00:00:00 NR -24.1319 54.1835 main 332 332 _____P________ -1 -24.1319 54.1835 99 7 173
1871001S16061 1871 3 SI MM NOT_NAMED 1871-01-05 03:00:00 NR -24.4744 54.2363 main 374 371 _____P________ -1 -24.4744 54.2363 99 7 171
1871001S16061 1871 3 SI MM NOT_NAMED 1871-01-05 06:00:00 NR -24.8000 54.3000 reunion main 402 402 _____O________ -1 -24.8000 54.3000 99 9.90000 6 171
1871001S16061 1871 3 SI MM NOT_NAMED 1871-01-05 09:00:00 NR -25.0996 54.3454 main 434 431 _____P________ -1 -25.0996 54.3454 99 6 170
1871001S16061 1871 3 SI MM NOT_NAMED 1871-01-05 12:00:00 NR -25.3823 54.4045 main 463 463 _____P________ -1 -25.3823 54.4045 99 6 168
1871001S16061 1871 3 SI MM NOT_NAMED 1871-01-05 15:00:00 NR -25.6513 54.4765 main 493 493 _____P________ -1 -25.6513 54.4765 99 5 165
1871001S16061 1871 3 SI MM NOT_NAMED 1871-01-05 18:00:00 NR -25.9097 54.5605 main 513 513 _____P________ -1 -25.9097 54.5605 99 5 162
1871001S16061 1871 3 SI MM NOT_NAMED 1871-01-05 21:00:00 NR -26.1606 54.6557 main 544 544 _____P________ -1 -26.1606 54.6557 99 5 160
1871001S16061 1871 3 SI MM NOT_NAMED 1871-01-06 00:00:00 NR -26.4072 54.7612 main 564 564 _____P________ -1 -26.4072 54.7612 99 5 158
1871001S16061 1871 3 SI MM NOT_NAMED 1871-01-06 03:00:00 NR -26.6527 54.8763 main 596 596 _____P________ -1 -26.6527 54.8763 99 5 157
1871001S16061 1871 3 SI MM NOT_NAMED 1871-01-06 06:00:00 NR -26.9000 55.0000 reunion main 617 617 _____O________ -1 -26.9000 55.0000 99 9.90000 6 157
1871001S16061 1871 3 SI MM NOT_NAMED 1871-01-06 09:00:00 NR -27.1721 55.1284 main 650 649 _____P________ -1 -27.1721 55.1284 99 6 156
1871001S16061 1871 3 SI MM NOT_NAMED 1871-01-06 12:00:00 NR -27.4455 55.2676 main 671 671 _____P________ -1 -27.4455 55.2676 99 6 155
1871001S16061 1871 3 SI MM NOT_NAMED 1871-01-06 15:00:00 NR -27.7180 55.4153 main 704 704 _____P________ -1 -27.7180 55.4153 99 6 154
1871001S16061 1871 3 SI MM NOT_NAMED 1871-01-06 18:00:00 NR -27.9877 55.5693 main 737 737 _____P________ -1 -27.9877 55.5693 99 6 153
1871001S16061 1871 3 SI MM NOT_NAMED 1871-01-06 21:00:00 NR -28.2527 55.7271 main 771 771 _____P________ -1 -28.2527 55.7271 99 6 152
1871001S16061 1871 3 SI MM NOT_NAMED 1871-01-07 00:00:00 NR -28.5111 55.8864 main 793 793 _____P________ -1 -28.5111 55.8864 99 6 151
1871001S16061 1871 3 SI MM NOT_NAMED 1871-01-07 03:00:00 NR -28.7608 56.0449 main 827 827 _____P________ -1 -28.7608 56.0449 99 6 151
1871001S16061 1871 3 SI MM NOT_NAMED 1871-01-07 06:00:00 NR -29.0000 56.2000 reunion main 851 851 _____O________ -1 -29.0000 56.2000 99 9.90000 6 151
1871001S16061 1871 3 SI MM NOT_NAMED 1871-01-07 09:00:00 NR -29.2443 56.3556 main 875 875 _____P________ -1 -29.2443 56.3556 99 6 150
1871001S16061 1871 3 SI MM NOT_NAMED 1871-01-07 12:00:00 NR -29.4806 56.5105 main 909 909 _____P________ -1 -29.4806 56.5105 99 5 150
1871001S16061 1871 3 SI MM NOT_NAMED 1871-01-07 15:00:00 NR -29.7067 56.6626 main 933 933 _____P________ -1 -29.7067 56.6626 99 5 150
1871001S16061 1871 3 SI MM NOT_NAMED 1871-01-07 18:00:00 NR -29.9201 56.8096 main 957 957 _____P________ -1 -29.9201 56.8096 99 5 149
1871001S16061 1871 3 SI MM NOT_NAMED 1871-01-07 21:00:00 NR -30.1185 56.9491 main 980 980 _____P________ -1 -30.1185 56.9491 99 4 148
1871001S16061 1871 3 SI MM NOT_NAMED 1871-01-08 00:00:00 NR -30.2995 57.0790 main 1005 1005 _____P________ -1 -30.2995 57.0790 99 4 148
1871001S16061 1871 3 SI MM NOT_NAMED 1871-01-08 03:00:00 NR -30.4608 57.1967 main 1028 1028 _____P________ -1 -30.4608 57.1967 99 4 148
1871001S16061 1871 3 SI MM NOT_NAMED 1871-01-08 06:00:00 NR -30.6000 57.3000 reunion main 1041 1041 _____O________ -1 -30.6000 57.3000 99 9.90000 3 147
1871001S16061 1871 3 SI MM NOT_NAMED 1871-01-08 09:00:00 NR -30.7157 57.3872 main 1054 1054 _____P________ -1 -30.7157 57.3872 99 3 147
1871001S16061 1871 3 SI MM NOT_NAMED 1871-01-08 12:00:00 NR -30.8102 57.4596 main 1066 1066 _____P________ -1 -30.8102 57.4596 99 2 146
1871001S16061 1871 3 SI MM NOT_NAMED 1871-01-08 15:00:00 NR -30.8863 57.5192 main 1077 1077 _____P________ -1 -30.8863 57.5192 99 2 145
1871001S16061 1871 3 SI MM NOT_NAMED 1871-01-08 18:00:00 NR -30.9473 57.5682 main 1079 1079 _____P________ -1 -30.9473 57.5682 99 1 143
1871001S16061 1871 3 SI MM NOT_NAMED 1871-01-08 21:00:00 NR -30.9961 57.6087 main 1090 1090 _____P________ -1 -30.9961 57.6087 99 1 142
1871001S16061 1871 3 SI MM NOT_NAMED 1871-01-09 00:00:00 NR -31.0358 57.6427 main 1090 1090 _____P________ -1 -31.0358 57.6427 99 1 146
1871001S16061 1871 3 SI MM NOT_NAMED 1871-01-09 03:00:00 NR -31.0694 57.6724 main 1103 1103 _____P________ -1 -31.0694 57.6724 99 1 137
1871001S16061 1871 3 SI MM NOT_NAMED 1871-01-09 06:00:00 NR -31.1000 57.7000 reunion main 1103 _____O________ -1 -31.1000 57.7000 99 9.90000 1 141

About IBTrACS Database

This database is a web-friendly format of International Best Track Archive for Climate Stewardship (IBTrACS), a global best track data archive curated by NOAA dating back to 1842.

Updated: 2021-11-26